Time;durP1;ratioP1;P1;durP2;ratioP2;P2;SDS_P1;SDS_P2;PMS_P1;PMS_P2;Temp;Humidity;BMP_temperature;BMP_pressure;BME280_temperature;BME280_humidity;BME280_pressure;Samples;Min_cycle;Max_cycle;Signal;HPM_P1;HPM_P2
2023/01/26 09:47:58;;;;;;;;;;;25.40;82.60;;;;;;6302390;22;20361;-62
2023/01/26 09:50:33;;;;;;;;;;;25.40;82.30;;;;;;6303447;22;19907;-62
2023/01/26 09:53:02;;;;;;;;;;;25.40;81.30;;;;;;6262315;22;19977;-62
2023/01/26 09:55:30;;;;;;;;;;;25.40;79.30;;;;;;6272312;22;19907;-62
2023/01/26 09:58:02;;;;;;;;;;;25.30;79.70;;;;;;6272649;22;19982;-63
2023/01/26 10:00:31;;;;;;;;;;;25.40;79.20;;;;;;6272809;22;19915;-64
2023/01/26 10:03:17;;;;;;;;;;;25.40;79.50;;;;;;6272693;22;19903;-64
2023/01/26 10:06:02;;;;;;;;;;;25.40;79.40;;;;;;6273093;22;19982;-65
2023/01/26 10:08:29;;;;;;;;;;;25.40;79.60;;;;;;6272935;22;19907;-63
2023/01/26 10:10:58;;;;;;;;;;;25.40;79.80;;;;;;6272747;22;20401;-63
2023/01/26 10:13:25;;;;;;;;;;;25.40;80.30;;;;;;6273130;22;20011;-64
2023/01/26 10:16:12;;;;;;;;;;;25.40;80.70;;;;;;6272715;22;20372;-64
2023/01/26 10:18:45;;;;;;;;;;;25.40;81.20;;;;;;6271979;22;19911;-65
2023/01/26 10:21:11;;;;;;;;;;;25.40;81.30;;;;;;6276151;22;19957;-66
2023/01/26 10:23:38;;;;;;;;;;;25.40;82.10;;;;;;6249063;22;19929;-65
2023/01/26 10:26:12;;;;;;;;;;;25.30;82.90;;;;;;6249001;22;19982;-65
2023/01/26 10:28:39;;;;;;;;;;;25.30;83.30;;;;;;6275839;22;19931;-65
2023/01/26 10:31:08;;;;;;;;;;;25.30;83.70;;;;;;6249218;22;19926;-65
2023/01/26 10:33:35;;;;;;;;;;;25.20;84.10;;;;;;6248671;22;19907;-65
2023/01/26 10:36:02;;;;;;;;;;;25.20;84.60;;;;;;6276021;22;19910;-65
2023/01/26 10:38:32;;;;;;;;;;;25.20;84.80;;;;;;6276100;22;19903;-65
2023/01/26 10:40:59;;;;;;;;;;;25.10;85.30;;;;;;6276343;22;19912;-64
2023/01/26 10:43:25;;;;;;;;;;;25.10;85.60;;;;;;6275765;22;19911;-65
2023/01/26 10:45:55;;;;;;;;;;;25.10;85.90;;;;;;6248776;22;20267;-64
2023/01/26 10:48:23;;;;;;;;;;;25.10;86.10;;;;;;6276170;22;19907;-64
2023/01/26 10:50:50;;;;;;;;;;;25.10;86.30;;;;;;6276159;22;19907;-64
2023/01/26 10:53:18;;;;;;;;;;;25.00;86.00;;;;;;6275915;22;20306;-64
2023/01/26 10:55:48;;;;;;;;;;;25.00;86.30;;;;;;6275720;22;19904;-64
2023/01/26 10:58:33;;;;;;;;;;;24.90;85.80;;;;;;6249008;22;19904;-64
2023/01/26 11:01:00;;;;;;;;;;;24.80;85.90;;;;;;6275876;22;20342;-64
2023/01/26 11:03:27;;;;;;;;;;;24.70;86.10;;;;;;6275560;22;19904;-64
2023/01/26 11:06:07;;;;;;;;;;;24.60;86.50;;;;;;6248196;22;19958;-65
2023/01/26 11:08:35;;;;;;;;;;;24.50;86.60;;;;;;6275937;22;19904;-64
2023/01/26 11:11:11;;;;;;;;;;;24.40;87.20;;;;;;6275722;22;19904;-64
2023/01/26 11:13:37;;;;;;;;;;;24.30;87.30;;;;;;6275567;22;19973;-64
2023/01/26 11:16:10;;;;;;;;;;;24.10;88.10;;;;;;6275775;22;19903;-64
2023/01/26 11:18:43;;;;;;;;;;;24.20;88.70;;;;;;6275477;22;19977;-64
2023/01/26 11:21:18;;;;;;;;;;;24.10;88.30;;;;;;6275491;22;19910;-64
2023/01/26 11:23:51;;;;;;;;;;;24.10;88.40;;;;;;6275971;22;19910;-65
2023/01/26 11:26:18;;;;;;;;;;;24.10;88.40;;;;;;6223721;22;19904;-65
2023/01/26 11:28:45;;;;;;;;;;;24.10;88.50;;;;;;6277596;22;19938;-64
2023/01/26 11:31:14;;;;;;;;;;;24.10;88.40;;;;;;6278136;22;19907;-64
2023/01/26 11:33:50;;;;;;;;;;;24.10;88.60;;;;;;6277859;22;19907;-65
2023/01/26 11:36:22;;;;;;;;;;;24.10;88.90;;;;;;6251170;22;20341;-64
2023/01/26 11:38:56;;;;;;;;;;;24.10;88.80;;;;;;6250411;22;19903;-64
2023/01/26 11:41:23;;;;;;;;;;;24.10;89.00;;;;;;6250273;22;19939;-65
2023/01/26 11:44:02;;;;;;;;;;;24.10;89.00;;;;;;6277237;22;19966;-64
2023/01/26 11:46:47;;;;;;;;;;;24.00;89.00;;;;;;6277454;22;19947;-65
2023/01/26 11:49:21;;;;;;;;;;;24.00;89.00;;;;;;6277449;22;20340;-64
2023/01/26 11:51:48;;;;;;;;;;;24.00;89.00;;;;;;6277615;22;19949;-65
2023/01/26 11:54:21;;;;;;;;;;;23.90;88.70;;;;;;6277638;22;20336;-65
2023/01/26 11:57:08;;;;;;;;;;;23.80;88.70;;;;;;6277975;22;19915;-65
2023/01/26 11:59:38;;;;;;;;;;;23.90;88.80;;;;;;6251372;22;19916;-65
2023/01/26 12:02:14;;;;;;;;;;;23.90;88.60;;;;;;6276847;22;20234;-65
2023/01/26 12:04:44;;;;;;;;;;;23.90;88.60;;;;;;6277348;22;19991;-64
2023/01/26 12:07:12;;;;;;;;;;;23.80;88.50;;;;;;6277642;22;20041;-65
2023/01/26 12:09:48;;;;;;;;;;;23.80;88.80;;;;;;6250482;22;19907;-65
2023/01/26 12:12:14;;;;;;;;;;;23.80;88.70;;;;;;6277152;22;20400;-65
2023/01/26 12:14:42;;;;;;;;;;;23.80;88.70;;;;;;6277056;22;19907;-65
2023/01/26 12:17:18;;;;;;;;;;;23.80;88.40;;;;;;6277000;22;19926;-65
2023/01/26 12:19:47;;;;;;;;;;;23.80;88.50;;;;;;6276767;22;19911;-65
2023/01/26 12:22:32;;;;;;;;;;;23.80;88.40;;;;;;6277535;22;19926;-65
2023/01/26 12:25:34;;;;;;;;;;;23.80;88.50;;;;;;6250329;22;19903;-65
2023/01/26 12:28:05;;;;;;;;;;;23.80;88.60;;;;;;6123990;23;19904;-65
2023/01/26 12:30:47;;;;;;;;;;;23.80;88.20;;;;;;6225205;22;19974;-64
2023/01/26 12:33:14;;;;;;;;;;;23.70;88.30;;;;;;6277328;22;19903;-65
2023/01/26 12:35:55;;;;;;;;;;;23.70;88.50;;;;;;6278009;22;20156;-64
2023/01/26 12:38:24;;;;;;;;;;;23.70;88.30;;;;;;6276703;22;19907;-64
2023/01/26 12:41:10;;;;;;;;;;;23.70;88.20;;;;;;6250299;22;19915;-64
2023/01/26 12:43:52;;;;;;;;;;;23.70;88.20;;;;;;6250837;22;19942;-64
2023/01/26 12:46:19;;;;;;;;;;;23.70;88.30;;;;;;6277191;22;19922;-64
2023/01/26 12:48:46;;;;;;;;;;;23.70;88.20;;;;;;6250165;22;19970;-64
2023/01/26 12:51:20;;;;;;;;;;;23.70;88.00;;;;;;6250113;22;19931;-64
2023/01/26 12:54:00;;;;;;;;;;;23.70;87.70;;;;;;6249880;22;19910;-64
2023/01/26 12:56:31;;;;;;;;;;;23.60;87.90;;;;;;6249788;22;19927;-64
2023/01/26 12:58:59;;;;;;;;;;;23.70;87.90;;;;;;6276675;22;20038;-64
2023/01/26 13:01:27;;;;;;;;;;;23.70;87.90;;;;;;6276202;22;19910;-64
2023/01/26 13:04:04;;;;;;;;;;;23.70;87.80;;;;;;6277100;22;19919;-65
2023/01/26 13:06:31;;;;;;;;;;;23.70;87.80;;;;;;6250156;22;20017;-64
2023/01/26 13:08:59;;;;;;;;;;;23.60;87.80;;;;;;6277417;22;19910;-64
2023/01/26 13:11:44;;;;;;;;;;;23.60;87.90;;;;;;6276930;22;19903;-65
2023/01/26 13:14:30;;;;;;;;;;;23.70;87.90;;;;;;6276534;22;19903;-65
2023/01/26 13:16:57;;;;;;;;;;;23.70;87.70;;;;;;6277132;22;19903;-64
2023/01/26 13:19:50;;;;;;;;;;;23.70;87.70;;;;;;6276875;22;20350;-66
2023/01/26 13:22:17;;;;;;;;;;;23.70;87.80;;;;;;6276303;22;19910;-65
2023/01/26 13:24:47;;;;;;;;;;;23.70;87.60;;;;;;6276549;22;19903;-65
2023/01/26 13:27:29;;;;;;;;;;;23.70;87.50;;;;;;6276834;22;19903;-65
2023/01/26 13:29:56;;;;;;;;;;;23.70;87.80;;;;;;6277383;22;19938;-65
2023/01/26 13:32:22;;;;;;;;;;;23.70;87.60;;;;;;6276757;22;19965;-65
2023/01/26 13:34:52;;;;;;;;;;;23.60;87.50;;;;;;6276211;22;19974;-65
2023/01/26 13:37:39;;;;;;;;;;;23.60;87.60;;;;;;6276675;22;19907;-65
2023/01/26 13:40:09;;;;;;;;;;;23.60;87.60;;;;;;6276116;22;19915;-65
2023/01/26 13:42:37;;;;;;;;;;;23.70;87.70;;;;;;6276843;22;19935;-65
2023/01/26 13:45:24;;;;;;;;;;;23.70;87.50;;;;;;6276172;22;19982;-66
2023/01/26 13:47:50;;;;;;;;;;;23.70;87.30;;;;;;6275809;22;19915;-65
2023/01/26 13:50:30;;;;;;;;;;;23.70;87.10;;;;;;6249434;22;19907;-65
2023/01/26 13:52:57;;;;;;;;;;;23.70;87.10;;;;;;6249254;22;19903;-66
2023/01/26 13:55:24;;;;;;;;;;;23.70;87.20;;;;;;6276798;22;19939;-65
2023/01/26 13:58:09;;;;;;;;;;;23.70;87.10;;;;;;6249095;22;19914;-66
2023/01/26 14:00:36;;;;;;;;;;;23.70;87.10;;;;;;6276501;22;19911;-65
2023/01/26 14:03:02;;;;;;;;;;;23.70;87.10;;;;;;6276172;22;19911;-65
2023/01/26 14:05:30;;;;;;;;;;;23.70;87.00;;;;;;6276493;22;19965;-65
2023/01/26 14:07:57;;;;;;;;;;;23.70;87.00;;;;;;6249785;22;19951;-65
2023/01/26 14:10:23;;;;;;;;;;;23.70;86.90;;;;;;6248993;22;19903;-65
2023/01/26 14:12:56;;;;;;;;;;;23.70;86.80;;;;;;6276337;22;20258;-65
2023/01/26 14:15:23;;;;;;;;;;;23.70;86.70;;;;;;6276344;22;19903;-65
2023/01/26 14:17:51;;;;;;;;;;;23.70;86.60;;;;;;6275774;22;19903;-65
2023/01/26 14:20:24;;;;;;;;;;;23.70;86.80;;;;;;6276253;22;19915;-65
2023/01/26 14:23:09;;;;;;;;;;;23.70;86.70;;;;;;6248871;22;19914;-65
2023/01/26 14:25:36;;;;;;;;;;;23.70;86.70;;;;;;6276253;22;19908;-65
2023/01/26 14:28:03;;;;;;;;;;;23.70;86.90;;;;;;6276652;22;19903;-65
2023/01/26 14:30:30;;;;;;;;;;;23.70;87.00;;;;;;6276386;22;19911;-65
2023/01/26 14:33:17;;;;;;;;;;;23.70;86.70;;;;;;6276214;22;19927;-65
2023/01/26 14:35:54;;;;;;;;;;;23.70;86.60;;;;;;6274924;22;20318;-65
2023/01/26 14:38:20;;;;;;;;;;;23.70;86.70;;;;;;6275962;22;19911;-65
2023/01/26 14:40:47;;;;;;;;;;;23.70;86.60;;;;;;6275994;22;19947;-65
2023/01/26 14:43:14;;;;;;;;;;;23.70;86.50;;;;;;6275933;22;20314;-65
2023/01/26 14:45:54;;;;;;;;;;;23.70;86.40;;;;;;6276118;22;19907;-64
2023/01/26 14:48:21;;;;;;;;;;;23.70;86.30;;;;;;6249532;22;19997;-64
2023/01/26 14:50:48;;;;;;;;;;;23.70;86.30;;;;;;6275881;22;19910;-64
2023/01/26 14:53:21;;;;;;;;;;;23.60;86.20;;;;;;6275492;22;19958;-64
2023/01/26 14:55:48;;;;;;;;;;;23.60;86.40;;;;;;6249340;22;19910;-64
2023/01/26 14:58:28;;;;;;;;;;;23.60;86.30;;;;;;6276550;22;19926;-64
2023/01/26 15:00:56;;;;;;;;;;;23.60;86.30;;;;;;6275911;22;19911;-64
2023/01/26 15:03:27;;;;;;;;;;;23.70;86.60;;;;;;6275592;22;19950;-64
2023/01/26 15:06:15;;;;;;;;;;;23.60;86.30;;;;;;6249005;22;19910;-64
2023/01/26 15:08:42;;;;;;;;;;;23.60;86.30;;;;;;6249080;22;20271;-64
2023/01/26 15:13:54;;;;;;;;;;;23.60;86.30;;;;;;6252781;22;19910;-64
2023/01/26 15:16:21;;;;;;;;;;;23.60;86.20;;;;;;6249207;22;19907;-64
2023/01/26 15:18:58;;;;;;;;;;;23.60;86.10;;;;;;6276749;22;20144;-64
2023/01/26 15:21:29;;;;;;;;;;;23.60;86.00;;;;;;6275954;22;19915;-64
2023/01/26 15:23:56;;;;;;;;;;;23.60;86.00;;;;;;6248815;22;19917;-64
2023/01/26 15:26:32;;;;;;;;;;;23.60;85.90;;;;;;6248867;22;19907;-64
2023/01/26 15:28:59;;;;;;;;;;;23.60;85.60;;;;;;6249001;22;19986;-64
2023/01/26 15:31:33;;;;;;;;;;;23.70;85.90;;;;;;6248654;22;19943;-64
2023/01/26 15:34:00;;;;;;;;;;;23.60;86.10;;;;;;6275476;22;20358;-64
2023/01/26 15:36:45;;;;;;;;;;;23.60;86.00;;;;;;6249410;22;19974;-64
2023/01/26 15:39:12;;;;;;;;;;;23.60;85.90;;;;;;6275781;22;20238;-64
2023/01/26 15:41:39;;;;;;;;;;;23.60;85.50;;;;;;6275766;22;19903;-64
2023/01/26 15:44:12;;;;;;;;;;;23.60;85.70;;;;;;6248799;22;19910;-64
2023/01/26 15:46:39;;;;;;;;;;;23.50;85.40;;;;;;6248624;22;19922;-65
2023/01/26 15:49:06;;;;;;;;;;;23.50;85.60;;;;;;6275693;22;19969;-65
2023/01/26 15:51:33;;;;;;;;;;;23.50;85.80;;;;;;6275691;22;19904;-64
2023/01/26 15:53:59;;;;;;;;;;;23.50;85.30;;;;;;6275553;22;20239;-64
2023/01/26 15:56:26;;;;;;;;;;;23.40;85.30;;;;;;6275280;22;19903;-65
2023/01/26 15:58:53;;;;;;;;;;;23.40;85.40;;;;;;6275489;22;19903;-64
2023/01/26 16:01:22;;;;;;;;;;;23.50;85.50;;;;;;6275640;22;20235;-64
2023/01/26 16:03:49;;;;;;;;;;;23.50;85.50;;;;;;6275182;22;19986;-64
2023/01/26 16:06:21;;;;;;;;;;;23.40;85.50;;;;;;6275692;22;19903;-64
2023/01/26 16:08:48;;;;;;;;;;;23.40;85.10;;;;;;6275806;22;20057;-64
2023/01/26 16:11:15;;;;;;;;;;;23.30;84.30;;;;;;6276105;22;19909;-64
2023/01/26 16:13:44;;;;;;;;;;;23.30;84.30;;;;;;6276443;22;19907;-64
2023/01/26 16:16:15;;;;;;;;;;;23.30;84.60;;;;;;6277407;22;19982;-65
2023/01/26 16:18:42;;;;;;;;;;;23.30;84.60;;;;;;6277691;22;19934;-64
2023/01/26 16:21:18;;;;;;;;;;;23.30;84.40;;;;;;6277218;22;19950;-65
2023/01/26 16:23:45;;;;;;;;;;;23.30;84.30;;;;;;6250409;22;20290;-65
2023/01/26 16:26:13;;;;;;;;;;;23.20;84.50;;;;;;6277237;22;20295;-65
2023/01/26 16:28:40;;;;;;;;;;;23.30;84.80;;;;;;6250435;22;19903;-66
2023/01/26 16:31:17;;;;;;;;;;;23.30;84.60;;;;;;6277593;22;20434;-66
2023/01/26 16:33:44;;;;;;;;;;;23.30;84.50;;;;;;6277397;22;19977;-65
2023/01/26 16:36:11;;;;;;;;;;;23.20;84.50;;;;;;6277430;22;19911;-65
2023/01/26 16:38:38;;;;;;;;;;;23.20;84.50;;;;;;6277642;22;19903;-65
2023/01/26 16:41:05;;;;;;;;;;;23.20;84.80;;;;;;6277528;22;20315;-65
2023/01/26 16:43:32;;;;;;;;;;;23.20;84.90;;;;;;6250660;22;19907;-65
2023/01/26 16:45:58;;;;;;;;;;;23.20;84.70;;;;;;6277405;22;19915;-64
2023/01/26 16:48:30;;;;;;;;;;;23.20;84.70;;;;;;6277100;22;20246;-64
2023/01/26 16:50:56;;;;;;;;;;;23.20;84.90;;;;;;6276968;22;19903;-64
2023/01/26 16:53:27;;;;;;;;;;;23.10;84.90;;;;;;6276927;22;20318;-64
2023/01/26 16:55:54;;;;;;;;;;;23.10;84.90;;;;;;6250503;22;20251;-64
2023/01/26 16:58:21;;;;;;;;;;;23.10;85.10;;;;;;6276915;22;20337;-64
2023/01/26 17:00:48;;;;;;;;;;;23.00;84.80;;;;;;6276831;22;20234;-64
2023/01/26 17:03:14;;;;;;;;;;;23.00;85.10;;;;;;6276623;22;19911;-64
2023/01/26 17:05:41;;;;;;;;;;;23.00;85.00;;;;;;6277489;22;19939;-64
2023/01/26 17:08:08;;;;;;;;;;;23.00;85.00;;;;;;6277250;22;19915;-64
2023/01/26 17:10:34;;;;;;;;;;;23.00;85.20;;;;;;6277427;22;19962;-64
2023/01/26 17:13:01;;;;;;;;;;;23.00;85.10;;;;;;6249776;22;19903;-64
2023/01/26 17:15:28;;;;;;;;;;;23.00;84.90;;;;;;6275986;22;20345;-64
2023/01/26 17:17:54;;;;;;;;;;;23.00;84.50;;;;;;6276393;22;19903;-64
2023/01/26 17:20:21;;;;;;;;;;;23.00;84.60;;;;;;6277114;22;19915;-64
2023/01/26 17:22:48;;;;;;;;;;;23.00;84.30;;;;;;6276715;22;20338;-64
2023/01/26 17:25:15;;;;;;;;;;;23.00;84.40;;;;;;6250314;22;19903;-64
2023/01/26 17:27:42;;;;;;;;;;;23.00;84.70;;;;;;6276821;22;19903;-64
2023/01/26 17:30:09;;;;;;;;;;;22.90;84.50;;;;;;6250199;22;19904;-64
2023/01/26 17:32:35;;;;;;;;;;;22.90;84.60;;;;;;6250087;22;19942;-64
2023/01/26 17:35:02;;;;;;;;;;;22.80;84.60;;;;;;6276744;22;19986;-64
2023/01/26 17:37:30;;;;;;;;;;;22.80;84.60;;;;;;6277233;22;20366;-65
2023/01/26 17:39:57;;;;;;;;;;;22.70;84.60;;;;;;6276376;22;19915;-64
2023/01/26 17:42:24;;;;;;;;;;;22.80;84.70;;;;;;6276806;22;19977;-65
2023/01/26 17:44:51;;;;;;;;;;;22.70;84.80;;;;;;6276911;22;19903;-65
2023/01/26 17:47:17;;;;;;;;;;;22.70;84.60;;;;;;6249529;22;20349;-64
2023/01/26 17:49:44;;;;;;;;;;;22.60;84.70;;;;;;6276699;22;19903;-65
2023/01/26 17:52:13;;;;;;;;;;;22.60;85.00;;;;;;6277501;22;19907;-65
2023/01/26 17:54:39;;;;;;;;;;;22.50;85.00;;;;;;6276527;22;19982;-64
2023/01/26 17:57:06;;;;;;;;;;;22.60;85.00;;;;;;6276543;22;19910;-64
2023/01/26 17:59:33;;;;;;;;;;;22.60;85.10;;;;;;6249517;22;19961;-64
2023/01/26 18:02:00;;;;;;;;;;;22.50;85.20;;;;;;6276520;22;19907;-64
2023/01/26 18:04:26;;;;;;;;;;;22.50;85.00;;;;;;6276426;22;19931;-65
2023/01/26 18:06:53;;;;;;;;;;;22.50;85.10;;;;;;6272940;22;19903;-67
2023/01/26 18:09:20;;;;;;;;;;;22.50;85.40;;;;;;6246621;22;19907;-66
2023/01/26 18:11:47;;;;;;;;;;;22.50;85.30;;;;;;6272832;22;19907;-66
2023/01/26 18:14:14;;;;;;;;;;;22.50;85.20;;;;;;6273544;22;19941;-66
2023/01/26 18:16:40;;;;;;;;;;;22.50;85.30;;;;;;6273525;22;19911;-68
2023/01/26 18:19:07;;;;;;;;;;;22.50;85.40;;;;;;6270437;22;20237;-66
2023/01/26 18:21:34;;;;;;;;;;;22.50;85.30;;;;;;6273307;22;19911;-66
2023/01/26 18:24:01;;;;;;;;;;;22.50;85.50;;;;;;6272927;22;20337;-67
2023/01/26 18:26:30;;;;;;;;;;;22.50;85.50;;;;;;6272787;22;19904;-67
2023/01/26 18:28:57;;;;;;;;;;;22.50;85.80;;;;;;6272881;22;19934;-68
2023/01/26 18:31:24;;;;;;;;;;;22.40;86.10;;;;;;6273014;22;19915;-68
2023/01/26 18:33:51;;;;;;;;;;;22.50;86.20;;;;;;6272354;22;19908;-67
2023/01/26 18:36:18;;;;;;;;;;;22.40;86.30;;;;;;6272101;22;20246;-68
2023/01/26 18:38:49;;;;;;;;;;;22.40;86.40;;;;;;6272175;22;20389;-68
2023/01/26 18:41:16;;;;;;;;;;;22.40;86.60;;;;;;6272377;22;19922;-68
2023/01/26 18:43:42;;;;;;;;;;;22.40;86.50;;;;;;6272853;22;19907;-68
2023/01/26 18:46:09;;;;;;;;;;;22.40;86.50;;;;;;6272597;22;19919;-67
2023/01/26 18:48:36;;;;;;;;;;;22.30;86.70;;;;;;6272980;22;19904;-68
2023/01/26 18:51:02;;;;;;;;;;;22.40;86.90;;;;;;6273233;22;19990;-68
2023/01/26 18:53:29;;;;;;;;;;;22.30;86.80;;;;;;6272187;22;19903;-68
2023/01/26 18:56:03;;;;;;;;;;;22.30;87.00;;;;;;6272743;22;19914;-67
2023/01/26 18:58:30;;;;;;;;;;;22.30;87.10;;;;;;6244015;22;19975;-68
2023/01/26 19:00:57;;;;;;;;;;;22.30;87.20;;;;;;6271894;22;19916;-68
2023/01/26 19:03:24;;;;;;;;;;;22.30;87.20;;;;;;6271951;22;20023;-68
2023/01/26 19:05:51;;;;;;;;;;;22.30;87.00;;;;;;6244854;22;19904;-68
2023/01/26 19:08:21;;;;;;;;;;;22.30;87.00;;;;;;6272454;22;19907;-68
2023/01/26 19:10:48;;;;;;;;;;;22.30;87.20;;;;;;6272301;22;19908;-68
2023/01/26 19:13:15;;;;;;;;;;;22.30;87.30;;;;;;6271961;22;19911;-68
2023/01/26 19:15:45;;;;;;;;;;;22.30;87.20;;;;;;6272655;22;19914;-69
2023/01/26 19:18:12;;;;;;;;;;;22.30;87.20;;;;;;6269524;22;19954;-68
2023/01/26 19:20:39;;;;;;;;;;;22.30;87.30;;;;;;6272074;22;20219;-69
2023/01/26 19:23:05;;;;;;;;;;;22.40;87.40;;;;;;6272017;22;20311;-68
2023/01/26 19:25:34;;;;;;;;;;;22.40;87.10;;;;;;6271871;22;20009;-68
2023/01/26 19:28:01;;;;;;;;;;;22.40;87.00;;;;;;6271988;22;19926;-67
2023/01/26 19:30:27;;;;;;;;;;;22.30;87.00;;;;;;6272387;22;19911;-65
2023/01/26 19:35:39;;;;;;;;;;;22.40;87.00;;;;;;6272485;22;19914;-66
2023/01/26 19:38:06;;;;;;;;;;;22.40;86.90;;;;;;6272920;22;20006;-68
2023/01/26 19:40:32;;;;;;;;;;;22.40;86.80;;;;;;6270943;22;20353;-68
2023/01/26 19:42:59;;;;;;;;;;;22.40;86.80;;;;;;6271179;22;19913;-67
2023/01/26 19:45:26;;;;;;;;;;;22.40;86.80;;;;;;6271912;22;19957;-67
2023/01/26 19:47:53;;;;;;;;;;;22.40;86.90;;;;;;6272431;22;19923;-68
2023/01/26 19:50:19;;;;;;;;;;;22.40;86.70;;;;;;6273330;22;19907;-67
2023/01/26 19:52:46;;;;;;;;;;;22.50;86.80;;;;;;6246825;22;19918;-67
2023/01/26 19:55:12;;;;;;;;;;;22.50;86.70;;;;;;6272410;22;19919;-67
2023/01/26 19:57:39;;;;;;;;;;;22.50;87.00;;;;;;6273995;22;19945;-67
2023/01/26 20:00:06;;;;;;;;;;;22.50;86.90;;;;;;6273889;22;19955;-66
2023/01/26 20:02:33;;;;;;;;;;;22.50;86.80;;;;;;6273300;22;19938;-66
2023/01/26 20:05:00;;;;;;;;;;;22.50;86.80;;;;;;6274269;22;19961;-66
2023/01/26 20:07:26;;;;;;;;;;;22.50;87.20;;;;;;6274143;22;19927;-66
2023/01/26 20:09:53;;;;;;;;;;;22.50;87.20;;;;;;6274267;22;20360;-66
2023/01/26 20:12:20;;;;;;;;;;;22.50;87.10;;;;;;6274423;22;19903;-67
2023/01/26 20:14:47;;;;;;;;;;;22.50;87.00;;;;;;6274908;22;20318;-69
2023/01/26 20:17:14;;;;;;;;;;;22.60;87.00;;;;;;6273172;22;19904;-69
2023/01/26 20:19:41;;;;;;;;;;;22.60;86.80;;;;;;6273211;22;19966;-67
2023/01/26 20:22:07;;;;;;;;;;;22.70;86.80;;;;;;6274304;22;19918;-66
2023/01/26 20:24:34;;;;;;;;;;;22.70;87.00;;;;;;6274078;22;19978;-67
2023/01/26 20:27:01;;;;;;;;;;;22.70;87.00;;;;;;6274229;22;19990;-66
2023/01/26 20:29:27;;;;;;;;;;;22.70;86.70;;;;;;6273540;22;19969;-66
2023/01/26 20:31:54;;;;;;;;;;;22.70;86.60;;;;;;6281540;22;19923;-70
2023/01/26 20:34:21;;;;;;;;;;;22.80;86.50;;;;;;6273827;22;19911;-70
2023/01/26 20:36:47;;;;;;;;;;;22.80;86.60;;;;;;6273899;22;19903;-69
2023/01/26 20:39:16;;;;;;;;;;;22.80;86.70;;;;;;6273297;22;19915;-70
2023/01/26 20:41:43;;;;;;;;;;;22.80;86.70;;;;;;6247065;22;19907;-70
2023/01/26 20:44:09;;;;;;;;;;;22.80;86.30;;;;;;6273800;22;19907;-69
2023/01/26 20:46:37;;;;;;;;;;;22.80;86.50;;;;;;6274032;22;19908;-69
2023/01/26 20:49:04;;;;;;;;;;;22.80;86.50;;;;;;6273774;22;19903;-69
2023/01/26 20:51:32;;;;;;;;;;;22.80;86.30;;;;;;6273172;22;20234;-69
2023/01/26 20:53:59;;;;;;;;;;;22.90;86.60;;;;;;6272988;22;19907;-69
2023/01/26 20:56:26;;;;;;;;;;;22.80;86.40;;;;;;6273789;22;20279;-69
2023/01/26 20:58:53;;;;;;;;;;;22.90;86.40;;;;;;6274198;22;19903;-69
2023/01/26 21:01:20;;;;;;;;;;;22.80;86.20;;;;;;6246605;22;19923;-69
2023/01/26 21:03:46;;;;;;;;;;;22.90;85.80;;;;;;6273422;22;19907;-71
2023/01/26 21:06:14;;;;;;;;;;;22.90;86.00;;;;;;6273377;22;19915;-71
2023/01/26 21:08:40;;;;;;;;;;;22.90;86.30;;;;;;6273188;22;20302;-70
2023/01/26 21:11:07;;;;;;;;;;;22.80;86.40;;;;;;6273713;22;19938;-69
2023/01/26 21:13:34;;;;;;;;;;;22.90;86.50;;;;;;6273321;22;19915;-70
2023/01/26 21:16:01;;;;;;;;;;;22.90;86.20;;;;;;6273710;22;19952;-69
2023/01/26 21:18:28;;;;;;;;;;;22.90;86.40;;;;;;6270552;22;19908;-69
2023/01/26 21:20:58;;;;;;;;;;;22.90;86.10;;;;;;6273270;22;19982;-69
2023/01/26 21:23:24;;;;;;;;;;;22.90;85.90;;;;;;6303354;22;19914;-70
2023/01/26 21:26:11;;;;;;;;;;;22.90;86.20;;;;;;6303274;22;19907;-70
2023/01/26 21:28:38;;;;;;;;;;;22.90;86.30;;;;;;6304171;22;19903;-70
2023/01/26 21:31:08;;;;;;;;;;;22.90;85.90;;;;;;6301488;22;20191;-69
2023/01/26 21:33:36;;;;;;;;;;;23.00;86.00;;;;;;6303341;22;19907;-70
2023/01/26 21:36:03;;;;;;;;;;;23.00;86.30;;;;;;6303255;22;19910;-69
2023/01/26 21:38:30;;;;;;;;;;;22.90;85.70;;;;;;6303582;22;20409;-69
2023/01/26 21:41:01;;;;;;;;;;;23.00;86.10;;;;;;6275297;22;19918;-70
2023/01/26 21:43:27;;;;;;;;;;;23.00;85.80;;;;;;6303818;22;20330;-70
2023/01/26 21:45:55;;;;;;;;;;;22.90;85.70;;;;;;6303486;22;20242;-70
2023/01/26 21:48:30;;;;;;;;;;;23.00;85.80;;;;;;6307192;22;19903;-69
2023/01/26 21:53:42;;;;;;;;;;;23.00;86.00;;;;;;6306051;22;19976;-69
2023/01/26 21:56:09;;;;;;;;;;;23.00;86.00;;;;;;6305854;22;19918;-70
2023/01/26 21:59:01;;;;;;;;;;;23.10;86.10;;;;;;6306927;22;19903;-69
2023/01/26 22:01:28;;;;;;;;;;;23.00;85.40;;;;;;6306904;22;19911;-69
2023/01/26 22:03:56;;;;;;;;;;;23.10;85.90;;;;;;6253922;22;19977;-69
2023/01/26 22:06:23;;;;;;;;;;;23.10;85.90;;;;;;6306975;22;19990;-69
2023/01/26 22:08:49;;;;;;;;;;;23.20;85.80;;;;;;6307073;22;19929;-69
2023/01/26 22:11:16;;;;;;;;;;;23.20;85.70;;;;;;6307003;22;19907;-71
2023/01/26 22:13:43;;;;;;;;;;;23.10;85.40;;;;;;6279348;22;19903;-71
2023/01/26 22:16:10;;;;;;;;;;;23.10;85.80;;;;;;6306736;22;19902;-69
2023/01/26 22:18:36;;;;;;;;;;;23.10;85.70;;;;;;6306982;22;19909;-69
2023/01/26 22:21:03;;;;;;;;;;;23.20;85.80;;;;;;6280184;22;19918;-71
2023/01/26 22:23:30;;;;;;;;;;;23.20;85.60;;;;;;6307909;22;19991;-68
2023/01/26 22:25:57;;;;;;;;;;;23.20;85.60;;;;;;6306995;22;19964;-70
2023/01/26 22:28:24;;;;;;;;;;;23.20;85.70;;;;;;6306931;22;20330;-69
2023/01/26 22:30:50;;;;;;;;;;;23.20;85.50;;;;;;6307264;22;19910;-70
2023/01/26 22:33:17;;;;;;;;;;;23.10;85.40;;;;;;6307080;22;19922;-69
2023/01/26 22:35:44;;;;;;;;;;;23.10;85.60;;;;;;6307038;22;20362;-69
2023/01/26 22:38:11;;;;;;;;;;;23.10;85.40;;;;;;6306499;22;19903;-69
2023/01/26 22:40:38;;;;;;;;;;;23.00;85.60;;;;;;6306669;22;20219;-69
2023/01/26 22:43:04;;;;;;;;;;;23.00;85.90;;;;;;6306976;22;20330;-69
2023/01/26 22:45:31;;;;;;;;;;;22.90;85.50;;;;;;6307003;22;19903;-69
2023/01/26 22:47:58;;;;;;;;;;;22.90;85.90;;;;;;6306274;22;19903;-69
2023/01/26 22:50:24;;;;;;;;;;;22.90;85.70;;;;;;6307339;22;19970;-70
2023/01/26 22:52:51;;;;;;;;;;;22.90;85.90;;;;;;6306541;22;19910;-69
2023/01/26 22:55:18;;;;;;;;;;;22.80;86.20;;;;;;6306895;22;19910;-70
2023/01/26 22:57:44;;;;;;;;;;;22.80;86.00;;;;;;6306949;22;19978;-70
2023/01/26 23:00:11;;;;;;;;;;;22.80;86.30;;;;;;6306643;22;19946;-70
2023/01/26 23:02:38;;;;;;;;;;;22.80;86.20;;;;;;6306994;22;19903;-70
2023/01/26 23:05:05;;;;;;;;;;;22.80;86.20;;;;;;6306494;22;20025;-70
2023/01/26 23:07:31;;;;;;;;;;;22.90;86.40;;;;;;6307025;22;19903;-70
2023/01/26 23:09:58;;;;;;;;;;;22.90;86.50;;;;;;6306430;22;19985;-70
2023/01/26 23:12:25;;;;;;;;;;;22.90;86.50;;;;;;6303513;22;19907;-69
2023/01/26 23:14:51;;;;;;;;;;;22.90;86.50;;;;;;6305046;22;19903;-70
2023/01/26 23:17:18;;;;;;;;;;;23.00;86.90;;;;;;6305457;22;19986;-69
2023/01/26 23:19:45;;;;;;;;;;;23.00;86.80;;;;;;6306045;22;19918;-70
2023/01/26 23:22:11;;;;;;;;;;;22.90;86.50;;;;;;6305314;22;19948;-69
2023/01/26 23:24:38;;;;;;;;;;;23.00;87.20;;;;;;6305592;22;19935;-70
2023/01/26 23:27:05;;;;;;;;;;;22.90;87.30;;;;;;6305679;22;19903;-70
2023/01/26 23:29:31;;;;;;;;;;;22.90;87.70;;;;;;6305426;22;19910;-70
2023/01/26 23:31:58;;;;;;;;;;;22.80;87.70;;;;;;6305947;22;19915;-69
2023/01/26 23:34:25;;;;;;;;;;;22.70;88.90;;;;;;6306050;22;19974;-70
2023/01/26 23:36:51;;;;;;;;;;;22.70;88.90;;;;;;6306191;22;19910;-69
2023/01/26 23:39:18;;;;;;;;;;;22.70;89.30;;;;;;6306199;22;19903;-70
2023/01/26 23:41:45;;;;;;;;;;;22.80;89.10;;;;;;6306258;22;20234;-71
2023/01/26 23:44:12;;;;;;;;;;;22.70;88.70;;;;;;6306315;22;20322;-71
2023/01/26 23:46:38;;;;;;;;;;;22.80;89.30;;;;;;6305963;22;20020;-70
2023/01/26 23:49:05;;;;;;;;;;;22.80;88.00;;;;;;6306043;22;19903;-69
2023/01/26 23:51:32;;;;;;;;;;;22.80;88.40;;;;;;6299853;22;20357;-70
2023/01/26 23:53:59;;;;;;;;;;;22.90;89.60;;;;;;6303427;22;20782;-72
2023/01/26 23:56:25;;;;;;;;;;;23.00;89.20;;;;;;6303253;22;20237;-71
2023/01/26 23:58:52;;;;;;;;;;;23.00;89.30;;;;;;6302125;22;19934;-72
